Dixie, Idaho
Current Conditions -  °F | °C
As of 5:55 AM on Wednesday 26 Nov 2014 (Local Time) from KGIC Reporting Station
Overcast Overcast  
Wind Chill: 43°   Ceiling: 4400
Heat Index: 49°   Visibility: 10mi
Dew Point: 39°   Wind: 17mph
Humidity: 67%   Direction: 230°SW
Pressure: 30.21"   Gusts: 25mph
Location:  45.8865°N, 115.105°W
Report Text: KGIC 261255Z AUTO 23015G22KT 10SM OVC044 10/04 A3021 RMK AO1 P0001 T00960038
Loading
Personal Weather Stations






























Interactive Weather Map New forecast layout! Learn more

10-Day Weather Forecast

Advertisements
Track Severe Weather on mobile